createdAt,value
2022-08-10T00:02:11.111Z,4.78
2022-08-10T00:05:54.945Z,4.40
2022-08-10T00:09:50.715Z,4.32
2022-08-10T00:13:33.407Z,9.07
2022-08-10T00:17:15.319Z,4.10
2022-08-10T00:20:57.179Z,3.70
2022-08-10T00:24:43.038Z,5.47
2022-08-10T00:28:25.107Z,3.15
2022-08-10T00:32:07.108Z,4.53
2022-08-10T00:35:49.160Z,5.68
2022-08-10T00:39:34.514Z,7.95
2022-08-10T00:43:23.418Z,5.95
2022-08-10T00:47:07.164Z,3.05
2022-08-10T00:51:05.463Z,3.88
2022-08-10T00:54:48.014Z,5.28
2022-08-10T00:58:30.142Z,5.22
2022-08-10T01:02:12.127Z,5.85
2022-08-10T01:06:15.342Z,5.97
2022-08-10T01:10:22.396Z,5.90
2022-08-10T01:14:16.546Z,4.60
2022-08-10T01:18:00.629Z,3.72
2022-08-10T01:21:54.265Z,6.45
2022-08-10T01:26:11.853Z,4.60
2022-08-10T01:34:02.425Z,5.40
2022-08-10T01:37:52.323Z,3.92
2022-08-10T01:41:46.797Z,7.53
2022-08-10T01:45:44.896Z,5.78
2022-08-10T01:49:29.806Z,3.55
2022-08-10T01:53:18.600Z,8.15
2022-08-10T01:57:03.056Z,5.55
2022-08-10T02:00:48.371Z,7.28
2022-08-10T02:04:34.364Z,4.95
2022-08-10T02:08:17.844Z,8.33
2022-08-10T02:12:08.600Z,4.32
2022-08-10T02:16:01.546Z,5.95
2022-08-10T02:19:46.255Z,4.30
2022-08-10T02:23:31.176Z,3.80
2022-08-10T02:27:14.196Z,3.67
2022-08-10T02:31:02.954Z,4.40
2022-08-10T02:34:49.940Z,4.47
2022-08-10T02:38:57.536Z,4.55
2022-08-10T02:45:29.444Z,6.05
2022-08-10T02:47:17.960Z,4.45
2022-08-10T02:51:04.988Z,6.22
2022-08-10T02:54:55.523Z,5.32
2022-08-10T02:58:44.863Z,5.65
2022-08-10T03:02:34.534Z,5.35
2022-08-10T03:06:22.124Z,3.88
2022-08-10T03:10:13.256Z,3.35
2022-08-10T03:13:59.840Z,6.15
2022-08-10T03:17:43.426Z,5.53
2022-08-10T03:21:42.794Z,4.13
2022-08-10T03:25:31.784Z,3.75
2022-08-10T03:29:13.632Z,3.08
2022-08-10T03:32:56.827Z,4.00
2022-08-10T03:36:40.287Z,5.25
2022-08-10T03:40:32.322Z,6.72
2022-08-10T03:44:32.937Z,4.93
2022-08-10T03:48:18.231Z,6.10
2022-08-10T03:52:01.348Z,6.63
2022-08-10T03:56:28.592Z,5.97
2022-08-10T03:59:45.921Z,8.35
2022-08-10T04:03:29.329Z,7.13
2022-08-10T04:07:11.641Z,5.18
2022-08-10T04:10:53.524Z,4.53
2022-08-10T04:14:49.154Z,4.80
2022-08-10T04:18:34.155Z,6.32
2022-08-10T04:22:20.501Z,4.47
2022-08-10T04:26:02.819Z,5.88
2022-08-10T04:29:45.396Z,4.50
2022-08-10T04:33:29.155Z,3.78
2022-08-10T04:37:13.059Z,8.55
2022-08-10T04:40:58.232Z,7.03
2022-08-10T04:44:41.760Z,4.90
2022-08-10T04:48:40.699Z,4.88
2022-08-10T04:52:25.538Z,4.80
2022-08-10T04:56:08.804Z,5.75
2022-08-10T04:59:50.648Z,5.35
2022-08-10T05:03:32.601Z,7.85
2022-08-10T05:07:18.135Z,5.70
2022-08-10T05:11:00.380Z,7.05
2022-08-10T05:14:42.325Z,6.82
2022-08-10T05:18:24.293Z,6.22
2022-08-10T05:22:06.360Z,6.10
2022-08-10T05:25:48.175Z,6.20
2022-08-10T05:29:30.325Z,7.45
2022-08-10T05:33:12.145Z,4.80
2022-08-10T05:36:55.434Z,6.78
2022-08-10T05:40:39.552Z,7.03
2022-08-10T05:44:22.200Z,5.57
2022-08-10T05:48:53.977Z,7.55
2022-08-10T05:52:06.663Z,13.75
2022-08-10T05:55:48.588Z,7.30
2022-08-10T06:00:11.054Z,6.28
2022-08-10T06:03:54.141Z,7.28
2022-08-10T06:07:46.709Z,6.05
2022-08-10T06:12:24.575Z,8.27
2022-08-10T06:15:51.714Z,5.47
2022-08-10T06:19:35.372Z,6.38
2022-08-10T06:23:17.794Z,10.02
2022-08-10T06:27:00.745Z,6.47
2022-08-10T06:30:45.158Z,7.57
2022-08-10T06:34:33.771Z,7.32
2022-08-10T06:38:16.393Z,7.80
2022-08-10T06:42:37.940Z,9.32
2022-08-10T06:46:23.253Z,9.23
2022-08-10T06:50:34.421Z,8.18
2022-08-10T06:54:27.568Z,10.38
2022-08-10T06:58:12.773Z,9.35
2022-08-10T07:02:07.680Z,7.72
2022-08-10T07:05:51.951Z,6.78
2022-08-10T07:09:39.231Z,10.80
2022-08-10T07:14:17.478Z,11.57
2022-08-10T07:17:25.651Z,7.63
2022-08-10T07:21:08.411Z,6.97
2022-08-10T07:24:51.875Z,6.53
2022-08-10T07:28:34.414Z,9.32
2022-08-10T07:32:17.419Z,7.68
2022-08-10T07:36:00.005Z,7.60
2022-08-10T07:40:02.885Z,5.40
2022-08-10T07:43:49.558Z,5.70
2022-08-10T07:47:53.648Z,7.57
2022-08-10T07:51:37.443Z,10.75
2022-08-10T07:56:05.944Z,6.85
2022-08-10T07:59:35.789Z,7.88
2022-08-10T08:03:24.816Z,8.52
2022-08-10T08:07:08.659Z,7.75
2022-08-10T08:10:51.455Z,4.93
2022-08-10T08:14:37.957Z,6.13
2022-08-10T08:24:14.786Z,6.22
2022-08-10T08:26:15.493Z,5.57
2022-08-10T08:30:00.026Z,4.57
2022-08-10T08:33:44.474Z,4.95
2022-08-10T08:38:32.639Z,7.22
2022-08-10T08:42:02.520Z,7.38
2022-08-10T08:46:00.791Z,9.55
2022-08-10T08:50:14.918Z,6.30
2022-08-10T08:54:21.165Z,7.50
2022-08-10T08:58:02.948Z,5.43
2022-08-10T09:02:15.919Z,6.43
2022-08-10T09:06:36.347Z,3.25
2022-08-10T09:10:52.284Z,3.28
2022-08-10T09:18:53.867Z,5.10
2022-08-10T09:22:42.922Z,5.65
2022-08-10T09:26:49.435Z,2.70
2022-08-10T09:30:40.544Z,1.67
2022-08-10T09:36:22.293Z,5.07
2022-08-10T09:40:12.685Z,3.70
2022-08-10T09:44:00.260Z,2.97
2022-08-10T09:48:02.511Z,2.30
2022-08-10T09:51:54.065Z,2.67
2022-08-10T09:56:17.577Z,4.90
2022-08-10T10:00:01.367Z,4.28
2022-08-10T10:03:58.772Z,1.88
2022-08-10T10:07:58.372Z,2.75
2022-08-10T10:11:57.893Z,1.67
2022-08-10T10:16:07.888Z,1.17
2022-08-10T10:20:14.460Z,1.52
2022-08-10T10:24:22.265Z,1.35
2022-08-10T10:29:15.193Z,1.38
2022-08-10T10:33:13.373Z,1.77
2022-08-10T10:37:00.148Z,0.70
2022-08-10T10:41:01.763Z,1.45
2022-08-10T10:45:06.805Z,0.95
2022-08-10T10:49:11.389Z,1.27
2022-08-10T10:53:30.449Z,1.92
2022-08-10T10:58:00.257Z,0.93
2022-08-10T11:01:47.817Z,0.45
2022-08-10T11:05:30.495Z,1.97
2022-08-10T11:10:04.785Z,1.10
2022-08-10T11:14:25.225Z,1.17
2022-08-10T11:17:52.715Z,2.08
2022-08-10T11:21:45.613Z,1.65
2022-08-10T11:25:32.966Z,1.55
2022-08-10T11:29:31.006Z,2.70
2022-08-10T11:33:30.824Z,2.88
2022-08-10T11:38:31.263Z,0.50
2022-08-10T11:42:09.256Z,0.38
2022-08-10T11:46:28.218Z,0.50
2022-08-10T11:50:19.999Z,0.30
2022-08-10T11:54:51.572Z,1.88
2022-08-10T11:58:54.457Z,0.55
2022-08-10T12:02:42.095Z,0.40
2022-08-10T12:06:54.081Z,1.08
2022-08-10T12:10:30.637Z,0.40
2022-08-10T12:14:29.296Z,0.50
2022-08-10T12:18:24.445Z,0.77
2022-08-10T12:22:10.708Z,0.57
2022-08-10T12:25:58.696Z,0.73
2022-08-10T12:29:49.435Z,0.95
2022-08-10T12:34:02.534Z,0.40
2022-08-10T12:38:10.209Z,0.55
2022-08-10T12:42:36.829Z,0.43
2022-08-10T12:46:52.135Z,1.20
2022-08-10T12:51:03.473Z,0.95
2022-08-10T12:54:46.452Z,0.47
2022-08-10T13:02:45.203Z,0.52
2022-08-10T13:06:32.781Z,2.13
2022-08-10T13:10:17.060Z,1.30
2022-08-10T13:14:06.985Z,1.73
2022-08-10T13:17:52.667Z,0.82
2022-08-10T13:21:38.144Z,1.17
2022-08-10T13:25:28.744Z,1.65
2022-08-10T13:29:17.303Z,0.90
2022-08-10T13:33:11.741Z,1.13
2022-08-10T13:36:58.799Z,0.70
2022-08-10T13:40:41.145Z,3.97
2022-08-10T13:44:32.816Z,0.40
2022-08-10T13:48:19.892Z,0.45
2022-08-10T13:52:02.056Z,0.50
2022-08-10T13:55:55.159Z,0.82
2022-08-10T14:00:37.664Z,1.40
2022-08-10T14:03:44.698Z,1.38
2022-08-10T14:07:27.712Z,5.43
2022-08-10T14:11:16.564Z,0.55
2022-08-10T14:15:00.972Z,0.63
2022-08-10T14:18:45.207Z,1.75
2022-08-10T14:22:33.594Z,1.00
2022-08-10T14:26:21.785Z,0.73
2022-08-10T14:30:05.802Z,0.82
2022-08-10T14:33:55.517Z,1.00
2022-08-10T14:37:41.540Z,0.55
2022-08-10T14:42:04.456Z,0.90
2022-08-10T14:45:35.945Z,1.65
2022-08-10T14:49:25.776Z,0.70
2022-08-10T14:53:15.718Z,3.67
2022-08-10T14:57:10.624Z,1.42
2022-08-10T15:00:55.532Z,2.80
2022-08-10T15:04:38.873Z,3.25
2022-08-10T15:08:24.687Z,1.92
2022-08-10T15:12:14.224Z,2.10
2022-08-10T15:16:12.589Z,2.55
2022-08-10T15:20:13.822Z,2.75
2022-08-10T15:24:04.617Z,1.38
2022-08-10T15:27:55.837Z,2.00
2022-08-10T15:31:58.057Z,1.58
2022-08-10T15:36:00.368Z,2.83
2022-08-10T15:40:25.570Z,1.08
2022-08-10T15:44:01.832Z,0.77
2022-08-10T15:47:51.918Z,1.48
2022-08-10T15:51:52.922Z,2.33
2022-08-10T15:55:57.549Z,2.20
2022-08-10T15:59:53.640Z,2.47
2022-08-10T16:03:43.908Z,1.65
2022-08-10T16:07:57.560Z,2.03
2022-08-10T16:11:42.471Z,1.75
2022-08-10T16:15:26.459Z,2.08
2022-08-10T16:19:22.136Z,1.67
2022-08-10T16:23:15.211Z,1.33
2022-08-10T16:26:58.616Z,1.35
2022-08-10T16:30:45.018Z,2.53
2022-08-10T16:34:29.712Z,1.95
2022-08-10T16:38:13.331Z,1.45
2022-08-10T16:42:03.306Z,1.33
2022-08-10T16:45:51.149Z,1.15
2022-08-10T16:49:38.904Z,3.55
2022-08-10T16:53:22.723Z,2.92
2022-08-10T16:57:05.756Z,2.30
2022-08-10T17:00:49.459Z,2.17
2022-08-10T17:04:33.271Z,1.92
2022-08-10T17:08:18.985Z,3.15
2022-08-10T17:12:10.644Z,4.10
2022-08-10T17:16:00.747Z,2.80
2022-08-10T17:19:45.072Z,2.22
2022-08-10T17:23:34.342Z,3.93
2022-08-10T17:28:04.948Z,2.28
2022-08-10T17:31:54.157Z,4.97
2022-08-10T17:35:37.302Z,2.65
2022-08-10T17:39:24.861Z,2.45
2022-08-10T17:43:07.886Z,2.42
2022-08-10T17:46:50.786Z,2.58
2022-08-10T17:50:34.159Z,2.13
2022-08-10T17:54:31.074Z,1.70
2022-08-10T17:58:15.987Z,8.32
2022-08-10T18:02:08.593Z,3.28
2022-08-10T18:06:18.223Z,2.03
2022-08-10T18:10:01.903Z,1.80
2022-08-10T18:13:55.155Z,2.30
2022-08-10T18:17:40.807Z,1.75
2022-08-10T18:21:24.553Z,2.58
2022-08-10T18:25:15.977Z,0.85
2022-08-10T18:28:58.192Z,1.05
2022-08-10T18:32:41.163Z,2.60
2022-08-10T18:36:25.691Z,2.67
2022-08-10T18:40:10.583Z,2.33
2022-08-10T18:44:11.836Z,2.50
2022-08-10T18:48:16.011Z,2.33
2022-08-10T18:52:04.227Z,2.13
2022-08-10T18:56:09.600Z,1.83
2022-08-10T19:00:12.934Z,1.35
2022-08-10T19:04:17.969Z,1.55
2022-08-10T19:08:37.059Z,3.85
2022-08-10T19:12:51.687Z,2.50
2022-08-10T19:17:15.130Z,3.38
2022-08-10T19:21:30.829Z,6.60
2022-08-10T19:26:36.451Z,6.82
2022-08-10T19:30:11.683Z,9.45
2022-08-10T19:34:12.271Z,5.47
2022-08-10T19:38:03.484Z,6.03
2022-08-10T19:42:11.439Z,6.43
2022-08-10T19:46:12.953Z,1.75
2022-08-10T19:50:07.141Z,2.45
2022-08-10T19:54:00.849Z,3.88
2022-08-10T19:58:03.540Z,4.35
2022-08-10T20:01:56.245Z,3.45
2022-08-10T20:06:19.535Z,4.82
2022-08-10T20:09:57.348Z,3.42
2022-08-10T20:14:25.878Z,2.70
2022-08-10T20:18:19.212Z,5.20
2022-08-10T20:22:08.010Z,4.05
2022-08-10T20:26:01.490Z,3.25
2022-08-10T20:30:02.439Z,2.42
2022-08-10T20:34:02.157Z,4.38
2022-08-10T20:38:03.969Z,2.95
2022-08-10T20:42:11.399Z,8.23
2022-08-10T20:46:11.082Z,5.50
2022-08-10T20:50:05.045Z,2.90
2022-08-10T20:53:53.165Z,3.28
2022-08-10T20:58:01.875Z,4.95
2022-08-10T21:02:13.547Z,5.20
2022-08-10T21:06:31.489Z,3.78
2022-08-10T21:10:34.691Z,2.70
2022-08-10T21:14:31.669Z,2.47
2022-08-10T21:18:51.893Z,5.93
2022-08-10T21:22:40.191Z,5.15
2022-08-10T21:26:37.103Z,7.50
2022-08-10T21:30:24.758Z,5.43
2022-08-10T21:34:31.681Z,4.70
2022-08-10T21:38:26.608Z,2.65
2022-08-10T21:42:40.691Z,4.20
2022-08-10T21:47:38.018Z,6.22
2022-08-10T21:52:00.308Z,3.67
2022-08-10T21:56:37.088Z,5.38
2022-08-10T22:00:37.657Z,6.22
2022-08-10T22:04:40.206Z,9.18
2022-08-10T22:09:03.601Z,4.40
2022-08-10T22:13:08.353Z,4.78
2022-08-10T22:18:00.265Z,3.22
2022-08-10T22:22:38.513Z,3.28
2022-08-10T22:27:00.584Z,4.57
2022-08-10T22:31:30.025Z,6.68
2022-08-10T22:35:43.310Z,5.43
2022-08-10T22:40:12.820Z,6.32
2022-08-10T22:44:20.376Z,4.97
2022-08-10T22:48:23.807Z,4.03
2022-08-10T22:52:17.812Z,2.83
2022-08-10T22:56:18.364Z,5.45
2022-08-10T23:00:17.061Z,5.78
2022-08-10T23:03:59.853Z,6.03
2022-08-10T23:07:51.282Z,4.40
2022-08-10T23:11:38.063Z,5.00
2022-08-10T23:15:50.755Z,8.63
2022-08-10T23:19:40.592Z,7.43
2022-08-10T23:23:24.414Z,4.63
2022-08-10T23:27:12.627Z,3.65
2022-08-10T23:30:56.275Z,4.10
2022-08-10T23:34:42.966Z,5.68
2022-08-10T23:38:27.771Z,5.72
2022-08-10T23:42:14.895Z,6.45
2022-08-10T23:46:03.224Z,9.43
2022-08-10T23:49:47.937Z,8.68
2022-08-10T23:53:42.303Z,7.28
2022-08-10T23:57:26.866Z,5.65
